sensor_id;sensor_type;location;lat;lon;timestamp;temperature;humidity
52034;DHT22;38045;52.988;6.536;2022-09-11T00:00:18;14.00;99.90
52034;DHT22;38045;52.988;6.536;2022-09-11T00:02:43;14.00;99.90
52034;DHT22;38045;52.988;6.536;2022-09-11T00:05:09;14.00;99.90
52034;DHT22;38045;52.988;6.536;2022-09-11T00:07:35;14.00;99.90
52034;DHT22;38045;52.988;6.536;2022-09-11T00:10:01;14.10;99.90
52034;DHT22;38045;52.988;6.536;2022-09-11T00:12:26;14.10;99.90
52034;DHT22;38045;52.988;6.536;2022-09-11T00:14:52;14.20;99.90
52034;DHT22;38045;52.988;6.536;2022-09-11T00:17:18;14.10;99.90
52034;DHT22;38045;52.988;6.536;2022-09-11T00:19:43;14.20;99.90
52034;DHT22;38045;52.988;6.536;2022-09-11T00:22:09;14.10;99.90
52034;DHT22;38045;52.988;6.536;2022-09-11T00:24:35;14.10;99.90
52034;DHT22;38045;52.988;6.536;2022-09-11T00:27:01;14.10;99.90
52034;DHT22;38045;52.988;6.536;2022-09-11T00:29:27;14.00;99.90
52034;DHT22;38045;52.988;6.536;2022-09-11T00:31:54;13.90;99.90
52034;DHT22;38045;52.988;6.536;2022-09-11T00:34:22;13.90;99.90
52034;DHT22;38045;52.988;6.536;2022-09-11T00:36:47;13.90;99.90
52034;DHT22;38045;52.988;6.536;2022-09-11T00:39:13;13.90;99.90
52034;DHT22;38045;52.988;6.536;2022-09-11T00:41:42;13.90;99.90
52034;DHT22;38045;52.988;6.536;2022-09-11T00:46:51;13.80;99.90
52034;DHT22;38045;52.988;6.536;2022-09-11T00:49:23;13.80;99.90
52034;DHT22;38045;52.988;6.536;2022-09-11T00:51:57;13.80;99.90
52034;DHT22;38045;52.988;6.536;2022-09-11T00:54:27;13.70;99.90
52034;DHT22;38045;52.988;6.536;2022-09-11T00:56:56;13.70;99.90
52034;DHT22;38045;52.988;6.536;2022-09-11T00:59:24;13.70;99.90
52034;DHT22;38045;52.988;6.536;2022-09-11T01:01:52;13.70;99.90
52034;DHT22;38045;52.988;6.536;2022-09-11T01:04:18;13.60;99.90
52034;DHT22;38045;52.988;6.536;2022-09-11T01:06:45;13.70;99.90
52034;DHT22;38045;52.988;6.536;2022-09-11T01:09:13;13.60;99.90
52034;DHT22;38045;52.988;6.536;2022-09-11T01:12:15;13.70;99.90
52034;DHT22;38045;52.988;6.536;2022-09-11T01:15:00;13.80;99.90
52034;DHT22;38045;52.988;6.536;2022-09-11T01:17:33;13.80;99.90
52034;DHT22;38045;52.988;6.536;2022-09-11T01:20:28;13.70;99.90
52034;DHT22;38045;52.988;6.536;2022-09-11T01:31:41;13.70;99.90
52034;DHT22;38045;52.988;6.536;2022-09-11T01:37:08;13.80;99.90
52034;DHT22;38045;52.988;6.536;2022-09-11T01:39:41;13.90;99.90
52034;DHT22;38045;52.988;6.536;2022-09-11T01:42:12;13.90;99.90
52034;DHT22;38045;52.988;6.536;2022-09-11T01:44:50;13.80;99.90
52034;DHT22;38045;52.988;6.536;2022-09-11T01:47:19;13.80;99.90
52034;DHT22;38045;52.988;6.536;2022-09-11T01:52:20;13.80;99.90
52034;DHT22;38045;52.988;6.536;2022-09-11T01:54:52;13.80;99.90
52034;DHT22;38045;52.988;6.536;2022-09-11T01:57:34;13.70;99.90
52034;DHT22;38045;52.988;6.536;2022-09-11T02:00:01;13.70;99.90
52034;DHT22;38045;52.988;6.536;2022-09-11T02:02:34;13.70;99.90
52034;DHT22;38045;52.988;6.536;2022-09-11T02:05:08;13.70;99.90
52034;DHT22;38045;52.988;6.536;2022-09-11T02:07:48;13.70;99.90
52034;DHT22;38045;52.988;6.536;2022-09-11T02:10:22;13.60;99.90
52034;DHT22;38045;52.988;6.536;2022-09-11T02:12:58;13.60;99.90
52034;DHT22;38045;52.988;6.536;2022-09-11T02:15:32;13.60;99.90
52034;DHT22;38045;52.988;6.536;2022-09-11T02:18:10;13.60;99.90
52034;DHT22;38045;52.988;6.536;2022-09-11T02:20:37;13.50;99.90
52034;DHT22;38045;52.988;6.536;2022-09-11T02:23:04;13.50;99.90
52034;DHT22;38045;52.988;6.536;2022-09-11T02:25:31;13.60;99.90
52034;DHT22;38045;52.988;6.536;2022-09-11T02:27:57;13.50;99.90
52034;DHT22;38045;52.988;6.536;2022-09-11T02:30:23;13.50;99.90
52034;DHT22;38045;52.988;6.536;2022-09-11T02:32:49;13.50;99.90
52034;DHT22;38045;52.988;6.536;2022-09-11T02:35:14;13.50;99.90
52034;DHT22;38045;52.988;6.536;2022-09-11T02:40:42;13.50;99.90
52034;DHT22;38045;52.988;6.536;2022-09-11T03:00:00;13.30;99.90
52034;DHT22;38045;52.988;6.536;2022-09-11T03:02:28;13.30;99.90
52034;DHT22;38045;52.988;6.536;2022-09-11T03:04:54;13.20;99.90
52034;DHT22;38045;52.988;6.536;2022-09-11T03:07:22;13.20;99.90
52034;DHT22;38045;52.988;6.536;2022-09-11T03:09:48;13.20;99.90
52034;DHT22;38045;52.988;6.536;2022-09-11T03:12:14;13.10;99.90
52034;DHT22;38045;52.988;6.536;2022-09-11T03:14:39;13.10;99.90
52034;DHT22;38045;52.988;6.536;2022-09-11T03:17:05;13.20;99.90
52034;DHT22;38045;52.988;6.536;2022-09-11T03:19:32;13.20;99.90
52034;DHT22;38045;52.988;6.536;2022-09-11T03:21:57;13.20;99.90
52034;DHT22;38045;52.988;6.536;2022-09-11T03:24:23;13.20;99.90
52034;DHT22;38045;52.988;6.536;2022-09-11T03:26:50;13.20;99.90
52034;DHT22;38045;52.988;6.536;2022-09-11T03:29:16;13.20;99.90
52034;DHT22;38045;52.988;6.536;2022-09-11T03:31:41;13.20;99.90
52034;DHT22;38045;52.988;6.536;2022-09-11T03:34:07;13.20;99.90
52034;DHT22;38045;52.988;6.536;2022-09-11T03:36:33;13.20;99.90
52034;DHT22;38045;52.988;6.536;2022-09-11T03:38:59;13.10;99.90
52034;DHT22;38045;52.988;6.536;2022-09-11T03:41:26;13.10;99.90
52034;DHT22;38045;52.988;6.536;2022-09-11T03:43:51;13.10;99.90
52034;DHT22;38045;52.988;6.536;2022-09-11T03:46:17;13.10;99.90
52034;DHT22;38045;52.988;6.536;2022-09-11T03:48:43;13.10;99.90
52034;DHT22;38045;52.988;6.536;2022-09-11T03:51:13;13.10;99.90
52034;DHT22;38045;52.988;6.536;2022-09-11T03:53:40;13.10;99.90
52034;DHT22;38045;52.988;6.536;2022-09-11T03:56:05;13.10;99.90
52034;DHT22;38045;52.988;6.536;2022-09-11T03:58:31;13.10;99.90
52034;DHT22;38045;52.988;6.536;2022-09-11T04:00:57;13.10;99.90
52034;DHT22;38045;52.988;6.536;2022-09-11T04:03:22;13.10;99.90
52034;DHT22;38045;52.988;6.536;2022-09-11T04:05:57;13.10;99.90
52034;DHT22;38045;52.988;6.536;2022-09-11T04:08:22;13.10;99.90
52034;DHT22;38045;52.988;6.536;2022-09-11T04:10:48;13.10;99.90
52034;DHT22;38045;52.988;6.536;2022-09-11T04:13:13;13.00;99.90
52034;DHT22;38045;52.988;6.536;2022-09-11T04:15:40;13.00;99.90
52034;DHT22;38045;52.988;6.536;2022-09-11T04:18:07;13.00;99.90
52034;DHT22;38045;52.988;6.536;2022-09-11T04:20:32;13.00;99.90
52034;DHT22;38045;52.988;6.536;2022-09-11T04:22:58;13.00;99.90
52034;DHT22;38045;52.988;6.536;2022-09-11T04:25:24;13.00;99.90
52034;DHT22;38045;52.988;6.536;2022-09-11T04:27:49;13.00;99.90
52034;DHT22;38045;52.988;6.536;2022-09-11T04:30:15;13.00;99.90
52034;DHT22;38045;52.988;6.536;2022-09-11T04:32:41;13.00;99.90
52034;DHT22;38045;52.988;6.536;2022-09-11T04:35:07;13.00;99.90
52034;DHT22;38045;52.988;6.536;2022-09-11T04:37:32;13.00;99.90
52034;DHT22;38045;52.988;6.536;2022-09-11T04:39:59;13.00;99.90
52034;DHT22;38045;52.988;6.536;2022-09-11T04:42:25;13.00;99.90
52034;DHT22;38045;52.988;6.536;2022-09-11T04:44:51;13.00;99.90
52034;DHT22;38045;52.988;6.536;2022-09-11T04:47:17;13.10;99.90
52034;DHT22;38045;52.988;6.536;2022-09-11T04:49:42;13.10;99.90
52034;DHT22;38045;52.988;6.536;2022-09-11T04:52:11;13.10;99.90
52034;DHT22;38045;52.988;6.536;2022-09-11T04:54:36;13.10;99.90
52034;DHT22;38045;52.988;6.536;2022-09-11T04:57:02;13.10;99.90
52034;DHT22;38045;52.988;6.536;2022-09-11T04:59:28;13.20;99.90
52034;DHT22;38045;52.988;6.536;2022-09-11T05:01:54;13.20;99.90
52034;DHT22;38045;52.988;6.536;2022-09-11T05:04:20;13.20;99.90
52034;DHT22;38045;52.988;6.536;2022-09-11T05:06:45;13.20;99.90
52034;DHT22;38045;52.988;6.536;2022-09-11T05:09:13;13.20;99.90
52034;DHT22;38045;52.988;6.536;2022-09-11T05:11:39;13.30;99.90
52034;DHT22;38045;52.988;6.536;2022-09-11T05:14:05;13.30;99.90
52034;DHT22;38045;52.988;6.536;2022-09-11T05:16:31;13.30;99.90
52034;DHT22;38045;52.988;6.536;2022-09-11T05:18:58;13.30;99.90
52034;DHT22;38045;52.988;6.536;2022-09-11T05:21:25;13.30;99.90
52034;DHT22;38045;52.988;6.536;2022-09-11T05:23:53;13.30;99.90
52034;DHT22;38045;52.988;6.536;2022-09-11T05:26:21;13.30;99.90
52034;DHT22;38045;52.988;6.536;2022-09-11T05:28:51;13.40;99.90
52034;DHT22;38045;52.988;6.536;2022-09-11T05:31:17;13.40;99.90
52034;DHT22;38045;52.988;6.536;2022-09-11T05:33:44;13.50;99.90
52034;DHT22;38045;52.988;6.536;2022-09-11T05:36:10;13.40;99.90
52034;DHT22;38045;52.988;6.536;2022-09-11T05:38:37;13.50;99.90
52034;DHT22;38045;52.988;6.536;2022-09-11T05:41:05;13.50;99.90
52034;DHT22;38045;52.988;6.536;2022-09-11T05:43:32;13.50;99.90
52034;DHT22;38045;52.988;6.536;2022-09-11T05:45:58;13.50;99.90
52034;DHT22;38045;52.988;6.536;2022-09-11T05:48:27;13.50;99.90
52034;DHT22;38045;52.988;6.536;2022-09-11T05:50:55;13.60;99.90
52034;DHT22;38045;52.988;6.536;2022-09-11T05:53:21;13.60;99.90
52034;DHT22;38045;52.988;6.536;2022-09-11T05:55:47;13.60;99.90
52034;DHT22;38045;52.988;6.536;2022-09-11T05:58:13;13.70;99.90
52034;DHT22;38045;52.988;6.536;2022-09-11T06:00:40;13.70;99.90
52034;DHT22;38045;52.988;6.536;2022-09-11T06:03:09;13.70;99.90
52034;DHT22;38045;52.988;6.536;2022-09-11T06:05:34;13.70;99.90
52034;DHT22;38045;52.988;6.536;2022-09-11T06:08:00;13.80;99.90
52034;DHT22;38045;52.988;6.536;2022-09-11T06:10:26;13.90;99.90
52034;DHT22;38045;52.988;6.536;2022-09-11T06:12:52;13.90;99.90
52034;DHT22;38045;52.988;6.536;2022-09-11T06:15:17;13.90;99.90
52034;DHT22;38045;52.988;6.536;2022-09-11T06:17:43;14.00;99.90
52034;DHT22;38045;52.988;6.536;2022-09-11T06:20:08;14.10;99.90
52034;DHT22;38045;52.988;6.536;2022-09-11T06:22:36;14.10;99.90
52034;DHT22;38045;52.988;6.536;2022-09-11T06:25:03;14.20;99.90
52034;DHT22;38045;52.988;6.536;2022-09-11T06:27:29;14.30;99.90
52034;DHT22;38045;52.988;6.536;2022-09-11T06:29:54;14.30;99.90
52034;DHT22;38045;52.988;6.536;2022-09-11T06:32:20;14.40;99.90
52034;DHT22;38045;52.988;6.536;2022-09-11T06:34:45;14.50;99.90
52034;DHT22;38045;52.988;6.536;2022-09-11T06:37:12;14.50;99.90
52034;DHT22;38045;52.988;6.536;2022-09-11T06:39:37;14.60;99.90
52034;DHT22;38045;52.988;6.536;2022-09-11T06:42:03;14.60;99.90
52034;DHT22;38045;52.988;6.536;2022-09-11T06:44:29;14.70;99.90
52034;DHT22;38045;52.988;6.536;2022-09-11T06:46:54;14.80;99.90
52034;DHT22;38045;52.988;6.536;2022-09-11T06:49:22;14.90;99.90
52034;DHT22;38045;52.988;6.536;2022-09-11T06:51:47;14.90;99.90
52034;DHT22;38045;52.988;6.536;2022-09-11T06:54:13;15.00;99.90
52034;DHT22;38045;52.988;6.536;2022-09-11T06:56:40;15.10;99.90
52034;DHT22;38045;52.988;6.536;2022-09-11T06:59:06;15.10;99.90
52034;DHT22;38045;52.988;6.536;2022-09-11T07:01:32;15.20;99.90
52034;DHT22;38045;52.988;6.536;2022-09-11T07:03:57;15.20;99.90
52034;DHT22;38045;52.988;6.536;2022-09-11T07:06:25;15.30;99.90
52034;DHT22;38045;52.988;6.536;2022-09-11T07:08:55;15.30;99.90
52034;DHT22;38045;52.988;6.536;2022-09-11T07:11:28;15.40;99.90
52034;DHT22;38045;52.988;6.536;2022-09-11T07:13:54;15.40;99.90
52034;DHT22;38045;52.988;6.536;2022-09-11T07:16:20;15.50;99.90
52034;DHT22;38045;52.988;6.536;2022-09-11T07:18:46;15.60;99.90
52034;DHT22;38045;52.988;6.536;2022-09-11T07:21:18;15.70;99.90
52034;DHT22;38045;52.988;6.536;2022-09-11T07:23:47;15.80;99.90
52034;DHT22;38045;52.988;6.536;2022-09-11T07:26:13;15.90;99.90
52034;DHT22;38045;52.988;6.536;2022-09-11T07:28:39;15.90;99.90
52034;DHT22;38045;52.988;6.536;2022-09-11T07:31:08;16.00;99.90
52034;DHT22;38045;52.988;6.536;2022-09-11T07:33:38;16.10;99.90
52034;DHT22;38045;52.988;6.536;2022-09-11T07:36:16;16.20;99.90
52034;DHT22;38045;52.988;6.536;2022-09-11T07:38:43;16.30;99.90
52034;DHT22;38045;52.988;6.536;2022-09-11T07:41:10;16.40;99.90
52034;DHT22;38045;52.988;6.536;2022-09-11T07:43:36;16.50;99.90
52034;DHT22;38045;52.988;6.536;2022-09-11T07:46:04;16.60;99.90
52034;DHT22;38045;52.988;6.536;2022-09-11T07:48:30;16.70;99.90
52034;DHT22;38045;52.988;6.536;2022-09-11T07:51:00;16.80;99.90
52034;DHT22;38045;52.988;6.536;2022-09-11T07:53:30;16.80;99.90
52034;DHT22;38045;52.988;6.536;2022-09-11T07:56:10;16.90;99.90
52034;DHT22;38045;52.988;6.536;2022-09-11T07:58:37;17.00;99.90
52034;DHT22;38045;52.988;6.536;2022-09-11T08:01:08;17.10;99.90
52034;DHT22;38045;52.988;6.536;2022-09-11T08:03:35;17.20;99.90
52034;DHT22;38045;52.988;6.536;2022-09-11T08:06:06;17.40;99.90
52034;DHT22;38045;52.988;6.536;2022-09-11T08:08:33;17.50;99.90
52034;DHT22;38045;52.988;6.536;2022-09-11T08:11:09;17.50;99.90
52034;DHT22;38045;52.988;6.536;2022-09-11T08:13:35;17.70;99.90
52034;DHT22;38045;52.988;6.536;2022-09-11T08:16:01;17.80;99.90
52034;DHT22;38045;52.988;6.536;2022-09-11T08:18:27;17.90;99.90
52034;DHT22;38045;52.988;6.536;2022-09-11T08:20:53;18.00;99.90
52034;DHT22;38045;52.988;6.536;2022-09-11T08:23:24;18.00;99.90
52034;DHT22;38045;52.988;6.536;2022-09-11T08:25:50;18.10;99.90
52034;DHT22;38045;52.988;6.536;2022-09-11T08:28:15;18.20;99.90
52034;DHT22;38045;52.988;6.536;2022-09-11T08:30:41;18.30;99.90
52034;DHT22;38045;52.988;6.536;2022-09-11T08:33:06;18.30;99.90
52034;DHT22;38045;52.988;6.536;2022-09-11T08:35:34;18.30;99.90
52034;DHT22;38045;52.988;6.536;2022-09-11T08:38:00;18.40;99.90
52034;DHT22;38045;52.988;6.536;2022-09-11T08:40:28;18.50;99.90
52034;DHT22;38045;52.988;6.536;2022-09-11T08:42:56;18.60;99.90
52034;DHT22;38045;52.988;6.536;2022-09-11T08:45:29;18.60;99.90
52034;DHT22;38045;52.988;6.536;2022-09-11T08:47:56;18.70;99.90
52034;DHT22;38045;52.988;6.536;2022-09-11T08:50:29;18.70;99.90
52034;DHT22;38045;52.988;6.536;2022-09-11T08:52:57;18.70;99.90
52034;DHT22;38045;52.988;6.536;2022-09-11T08:55:47;18.80;99.90
52034;DHT22;38045;52.988;6.536;2022-09-11T09:06:46;19.10;99.90
52034;DHT22;38045;52.988;6.536;2022-09-11T09:09:38;19.30;99.90
52034;DHT22;38045;52.988;6.536;2022-09-11T09:12:26;19.60;99.90
52034;DHT22;38045;52.988;6.536;2022-09-11T09:17:34;19.80;99.90
52034;DHT22;38045;52.988;6.536;2022-09-11T09:20:10;19.70;99.90
52034;DHT22;38045;52.988;6.536;2022-09-11T09:23:00;19.60;99.90
52034;DHT22;38045;52.988;6.536;2022-09-11T09:25:27;19.50;99.90
52034;DHT22;38045;52.988;6.536;2022-09-11T09:28:02;19.50;99.90
52034;DHT22;38045;52.988;6.536;2022-09-11T09:30:45;19.40;99.90
52034;DHT22;38045;52.988;6.536;2022-09-11T09:35:42;19.40;99.90
52034;DHT22;38045;52.988;6.536;2022-09-11T09:38:15;19.30;99.90
52034;DHT22;38045;52.988;6.536;2022-09-11T09:46:42;19.10;99.90
52034;DHT22;38045;52.988;6.536;2022-09-11T09:49:09;19.20;99.90
52034;DHT22;38045;52.988;6.536;2022-09-11T09:51:36;19.20;99.90
52034;DHT22;38045;52.988;6.536;2022-09-11T09:54:04;19.10;99.90
52034;DHT22;38045;52.988;6.536;2022-09-11T09:56:32;19.10;99.90
52034;DHT22;38045;52.988;6.536;2022-09-11T10:01:45;19.30;99.90
52034;DHT22;38045;52.988;6.536;2022-09-11T10:04:23;19.60;99.90
52034;DHT22;38045;52.988;6.536;2022-09-11T10:06:51;20.10;99.90
52034;DHT22;38045;52.988;6.536;2022-09-11T10:09:29;20.40;99.90
52034;DHT22;38045;52.988;6.536;2022-09-11T10:12:00;20.80;99.90
52034;DHT22;38045;52.988;6.536;2022-09-11T10:14:29;21.10;99.90
52034;DHT22;38045;52.988;6.536;2022-09-11T10:16:58;21.60;99.90
52034;DHT22;38045;52.988;6.536;2022-09-11T10:19:39;21.90;99.90
52034;DHT22;38045;52.988;6.536;2022-09-11T10:22:24;22.20;99.90
52034;DHT22;38045;52.988;6.536;2022-09-11T10:25:16;22.50;99.90
52034;DHT22;38045;52.988;6.536;2022-09-11T10:30:36;22.70;99.90
52034;DHT22;38045;52.988;6.536;2022-09-11T10:33:13;22.90;99.90
52034;DHT22;38045;52.988;6.536;2022-09-11T10:35:49;23.20;99.90
52034;DHT22;38045;52.988;6.536;2022-09-11T10:38:17;23.40;99.90
52034;DHT22;38045;52.988;6.536;2022-09-11T10:41:03;23.60;99.90
52034;DHT22;38045;52.988;6.536;2022-09-11T10:46:22;24.00;99.90
52034;DHT22;38045;52.988;6.536;2022-09-11T10:48:58;23.90;99.90
52034;DHT22;38045;52.988;6.536;2022-09-11T10:51:26;23.50;99.90
52034;DHT22;38045;52.988;6.536;2022-09-11T10:59:26;22.10;99.90
52034;DHT22;38045;52.988;6.536;2022-09-11T11:01:54;21.80;99.90
52034;DHT22;38045;52.988;6.536;2022-09-11T11:04:20;21.50;99.90
52034;DHT22;38045;52.988;6.536;2022-09-11T11:07:15;21.30;99.90
52034;DHT22;38045;52.988;6.536;2022-09-11T11:12:26;21.00;99.90
52034;DHT22;38045;52.988;6.536;2022-09-11T11:15:11;20.90;99.90
52034;DHT22;38045;52.988;6.536;2022-09-11T11:18:11;20.80;99.90
52034;DHT22;38045;52.988;6.536;2022-09-11T11:23:28;20.60;99.90
52034;DHT22;38045;52.988;6.536;2022-09-11T11:31:41;20.50;99.90
52034;DHT22;38045;52.988;6.536;2022-09-11T11:34:32;20.40;99.90
52034;DHT22;38045;52.988;6.536;2022-09-11T11:37:13;20.40;99.90
52034;DHT22;38045;52.988;6.536;2022-09-11T11:40:03;20.40;99.90
52034;DHT22;38045;52.988;6.536;2022-09-11T11:42:38;20.40;99.90
52034;DHT22;38045;52.988;6.536;2022-09-11T11:45:10;20.30;99.90
52034;DHT22;38045;52.988;6.536;2022-09-11T11:47:42;20.40;99.90
52034;DHT22;38045;52.988;6.536;2022-09-11T11:53:09;20.50;99.90
52034;DHT22;38045;52.988;6.536;2022-09-11T11:55:48;20.70;99.90
52034;DHT22;38045;52.988;6.536;2022-09-11T12:00:57;20.80;99.90
52034;DHT22;38045;52.988;6.536;2022-09-11T12:05:56;20.80;99.90
52034;DHT22;38045;52.988;6.536;2022-09-11T12:08:22;20.80;99.90
52034;DHT22;38045;52.988;6.536;2022-09-11T12:11:01;20.90;99.90
52034;DHT22;38045;52.988;6.536;2022-09-11T12:13:34;21.00;99.90
52034;DHT22;38045;52.988;6.536;2022-09-11T12:16:16;21.10;99.90
52034;DHT22;38045;52.988;6.536;2022-09-11T12:19:13;21.10;99.90
52034;DHT22;38045;52.988;6.536;2022-09-11T12:21:40;21.20;99.90
52034;DHT22;38045;52.988;6.536;2022-09-11T12:26:32;21.40;99.90
52034;DHT22;38045;52.988;6.536;2022-09-11T12:34:17;21.20;99.90
52034;DHT22;38045;52.988;6.536;2022-09-11T12:36:53;21.00;99.90
52034;DHT22;38045;52.988;6.536;2022-09-11T12:47:28;20.70;99.90
52034;DHT22;38045;52.988;6.536;2022-09-11T12:50:06;20.70;99.90
52034;DHT22;38045;52.988;6.536;2022-09-11T12:57:51;20.50;99.90
52034;DHT22;38045;52.988;6.536;2022-09-11T13:00:34;20.50;99.90
52034;DHT22;38045;52.988;6.536;2022-09-11T13:03:02;20.60;99.90
52034;DHT22;38045;52.988;6.536;2022-09-11T13:05:31;20.60;99.90
52034;DHT22;38045;52.988;6.536;2022-09-11T13:08:02;20.70;99.90
52034;DHT22;38045;52.988;6.536;2022-09-11T13:10:37;20.90;99.90
52034;DHT22;38045;52.988;6.536;2022-09-11T13:13:05;21.30;99.90
52034;DHT22;38045;52.988;6.536;2022-09-11T13:15:50;21.50;99.90
52034;DHT22;38045;52.988;6.536;2022-09-11T13:18:32;21.50;99.90
52034;DHT22;38045;52.988;6.536;2022-09-11T13:21:01;21.40;99.90
52034;DHT22;38045;52.988;6.536;2022-09-11T13:23:27;21.30;99.90
52034;DHT22;38045;52.988;6.536;2022-09-11T13:25:54;21.20;99.90
52034;DHT22;38045;52.988;6.536;2022-09-11T13:28:21;21.10;99.90
52034;DHT22;38045;52.988;6.536;2022-09-11T13:30:54;21.00;99.90
52034;DHT22;38045;52.988;6.536;2022-09-11T13:33:22;20.90;99.90
52034;DHT22;38045;52.988;6.536;2022-09-11T13:35:50;20.90;99.90
52034;DHT22;38045;52.988;6.536;2022-09-11T13:38:28;20.90;99.90
52034;DHT22;38045;52.988;6.536;2022-09-11T13:40:57;21.00;99.90
52034;DHT22;38045;52.988;6.536;2022-09-11T13:43:29;21.00;99.90
52034;DHT22;38045;52.988;6.536;2022-09-11T13:48:39;21.50;99.90
52034;DHT22;38045;52.988;6.536;2022-09-11T13:51:05;21.70;99.90
52034;DHT22;38045;52.988;6.536;2022-09-11T13:53:32;21.90;99.90
52034;DHT22;38045;52.988;6.536;2022-09-11T13:55:59;21.80;99.90
52034;DHT22;38045;52.988;6.536;2022-09-11T13:58:28;21.80;99.90
52034;DHT22;38045;52.988;6.536;2022-09-11T14:01:13;21.70;99.90
52034;DHT22;38045;52.988;6.536;2022-09-11T14:03:45;21.50;99.90
52034;DHT22;38045;52.988;6.536;2022-09-11T14:06:19;21.50;99.90
52034;DHT22;38045;52.988;6.536;2022-09-11T14:08:53;21.50;99.90
52034;DHT22;38045;52.988;6.536;2022-09-11T14:11:28;21.50;99.90
52034;DHT22;38045;52.988;6.536;2022-09-11T14:14:08;21.50;99.90
52034;DHT22;38045;52.988;6.536;2022-09-11T14:16:36;21.70;99.90
52034;DHT22;38045;52.988;6.536;2022-09-11T14:19:08;21.90;99.90
52034;DHT22;38045;52.988;6.536;2022-09-11T14:21:39;22.10;99.90
52034;DHT22;38045;52.988;6.536;2022-09-11T14:26:53;22.40;99.90
52034;DHT22;38045;52.988;6.536;2022-09-11T14:32:29;22.50;99.90
52034;DHT22;38045;52.988;6.536;2022-09-11T14:34:56;22.60;99.90
52034;DHT22;38045;52.988;6.536;2022-09-11T14:37:22;22.60;99.90
52034;DHT22;38045;52.988;6.536;2022-09-11T14:40:04;22.60;99.90
52034;DHT22;38045;52.988;6.536;2022-09-11T14:42:33;22.60;99.90
52034;DHT22;38045;52.988;6.536;2022-09-11T14:45:10;22.70;99.90
52034;DHT22;38045;52.988;6.536;2022-09-11T14:47:36;22.80;99.90
52034;DHT22;38045;52.988;6.536;2022-09-11T14:50:03;23.00;99.90
52034;DHT22;38045;52.988;6.536;2022-09-11T14:52:31;23.00;99.90
52034;DHT22;38045;52.988;6.536;2022-09-11T14:54:56;23.00;99.90
52034;DHT22;38045;52.988;6.536;2022-09-11T14:57:25;23.00;99.90
52034;DHT22;38045;52.988;6.536;2022-09-11T14:59:51;22.70;99.90
52034;DHT22;38045;52.988;6.536;2022-09-11T15:02:18;22.70;99.90
52034;DHT22;38045;52.988;6.536;2022-09-11T15:04:45;22.70;99.90
52034;DHT22;38045;52.988;6.536;2022-09-11T15:07:13;22.70;99.90
52034;DHT22;38045;52.988;6.536;2022-09-11T15:09:39;22.70;99.90
52034;DHT22;38045;52.988;6.536;2022-09-11T15:12:06;22.60;99.90
52034;DHT22;38045;52.988;6.536;2022-09-11T15:14:32;22.60;99.90
52034;DHT22;38045;52.988;6.536;2022-09-11T15:16:59;22.60;99.90
52034;DHT22;38045;52.988;6.536;2022-09-11T15:19:26;22.70;99.90
52034;DHT22;38045;52.988;6.536;2022-09-11T15:21:51;22.90;99.90
52034;DHT22;38045;52.988;6.536;2022-09-11T15:24:17;23.10;99.90
52034;DHT22;38045;52.988;6.536;2022-09-11T15:26:43;23.20;99.90
52034;DHT22;38045;52.988;6.536;2022-09-11T15:29:08;23.20;99.90
52034;DHT22;38045;52.988;6.536;2022-09-11T15:31:38;23.10;99.90
52034;DHT22;38045;52.988;6.536;2022-09-11T15:34:05;22.90;99.90
52034;DHT22;38045;52.988;6.536;2022-09-11T15:36:34;22.70;99.90
52034;DHT22;38045;52.988;6.536;2022-09-11T15:39:03;22.50;99.90
52034;DHT22;38045;52.988;6.536;2022-09-11T15:41:28;22.30;99.90
52034;DHT22;38045;52.988;6.536;2022-09-11T15:43:54;22.10;99.90
52034;DHT22;38045;52.988;6.536;2022-09-11T15:46:21;22.10;99.90
52034;DHT22;38045;52.988;6.536;2022-09-11T15:48:47;21.90;99.90
52034;DHT22;38045;52.988;6.536;2022-09-11T15:51:20;21.80;99.90
52034;DHT22;38045;52.988;6.536;2022-09-11T15:53:46;21.80;99.90
52034;DHT22;38045;52.988;6.536;2022-09-11T15:56:15;21.70;99.90
52034;DHT22;38045;52.988;6.536;2022-09-11T15:58:42;21.60;99.90
52034;DHT22;38045;52.988;6.536;2022-09-11T16:01:17;21.50;99.90
52034;DHT22;38045;52.988;6.536;2022-09-11T16:03:43;21.40;99.90
52034;DHT22;38045;52.988;6.536;2022-09-11T16:06:08;21.40;99.90
52034;DHT22;38045;52.988;6.536;2022-09-11T16:08:34;21.40;99.90
52034;DHT22;38045;52.988;6.536;2022-09-11T16:11:04;21.40;99.90
52034;DHT22;38045;52.988;6.536;2022-09-11T16:13:30;21.40;99.90
52034;DHT22;38045;52.988;6.536;2022-09-11T16:16:00;21.30;99.90
52034;DHT22;38045;52.988;6.536;2022-09-11T16:18:27;21.20;99.90
52034;DHT22;38045;52.988;6.536;2022-09-11T16:20:59;21.40;99.90
52034;DHT22;38045;52.988;6.536;2022-09-11T16:23:26;21.70;99.90
52034;DHT22;38045;52.988;6.536;2022-09-11T16:25:53;21.80;99.90
52034;DHT22;38045;52.988;6.536;2022-09-11T16:28:19;21.80;99.90
52034;DHT22;38045;52.988;6.536;2022-09-11T16:30:45;21.70;99.90
52034;DHT22;38045;52.988;6.536;2022-09-11T16:33:15;21.60;99.90
52034;DHT22;38045;52.988;6.536;2022-09-11T16:35:41;21.50;99.90
52034;DHT22;38045;52.988;6.536;2022-09-11T16:38:06;21.40;99.90
52034;DHT22;38045;52.988;6.536;2022-09-11T16:40:33;21.40;99.90
52034;DHT22;38045;52.988;6.536;2022-09-11T16:43:03;21.40;99.90
52034;DHT22;38045;52.988;6.536;2022-09-11T16:45:31;21.30;99.90
52034;DHT22;38045;52.988;6.536;2022-09-11T16:47:58;21.20;99.90
52034;DHT22;38045;52.988;6.536;2022-09-11T16:50:24;21.10;99.90
52034;DHT22;38045;52.988;6.536;2022-09-11T16:52:50;21.10;99.90
52034;DHT22;38045;52.988;6.536;2022-09-11T16:55:16;21.00;99.90
52034;DHT22;38045;52.988;6.536;2022-09-11T16:57:43;21.00;99.90
52034;DHT22;38045;52.988;6.536;2022-09-11T17:00:11;21.10;99.90
52034;DHT22;38045;52.988;6.536;2022-09-11T17:02:38;21.20;99.90
52034;DHT22;38045;52.988;6.536;2022-09-11T17:05:05;21.20;99.90
52034;DHT22;38045;52.988;6.536;2022-09-11T17:07:33;21.20;99.90
52034;DHT22;38045;52.988;6.536;2022-09-11T17:09:59;21.10;99.90
52034;DHT22;38045;52.988;6.536;2022-09-11T17:12:24;21.30;99.90
52034;DHT22;38045;52.988;6.536;2022-09-11T17:14:50;21.30;99.90
52034;DHT22;38045;52.988;6.536;2022-09-11T17:17:16;21.20;99.90
52034;DHT22;38045;52.988;6.536;2022-09-11T17:19:41;21.10;99.90
52034;DHT22;38045;52.988;6.536;2022-09-11T17:22:07;21.00;99.90
52034;DHT22;38045;52.988;6.536;2022-09-11T17:24:33;20.80;99.90
52034;DHT22;38045;52.988;6.536;2022-09-11T17:26:59;20.80;99.90
52034;DHT22;38045;52.988;6.536;2022-09-11T17:29:25;20.80;99.90
52034;DHT22;38045;52.988;6.536;2022-09-11T17:31:50;20.70;99.90
52034;DHT22;38045;52.988;6.536;2022-09-11T17:34:16;20.50;99.90
52034;DHT22;38045;52.988;6.536;2022-09-11T17:36:42;20.50;99.90
52034;DHT22;38045;52.988;6.536;2022-09-11T17:39:08;20.40;99.90
52034;DHT22;38045;52.988;6.536;2022-09-11T17:41:34;20.30;99.90